Terminal Aerodrome Forecast
Issued by NWS North Platte, NE

Home | Current Version | Previous Version | Graphics & Text | Print | Product List | Glossary On
Versions: 1 2 3 4 5 6 7 8 9 10 11 12 13 14 15 16 17 18 19 20 21 22 23 24 25 26 27 28
815
FTUS43 KLBF 130345 AAA
TAFVTN
TAF AMD
KVTN 130345Z 1304/1324 11013KT P6SM SCT030 OVC040
     FM130700 12012KT P6SM OVC025
     FM131000 13012KT P6SM OVC015
     FM131700 18015G23KT P6SM OVC012
     FM131900 18015G24KT P6SM OVC020=

USA.gov is the U.S. government's official web portal to all federal, state and local government web resources and services.